sensor_id;sensor_type;location;lat;lon;timestamp;P1;durP1;ratioP1;P2;durP2;ratioP2
80675;SDS011;70041;46.088;18.268;2023-06-04T00:01:32;7.50;;;2.80;;
80675;SDS011;70041;46.088;18.268;2023-06-04T00:03:57;6.67;;;2.40;;
80675;SDS011;70041;46.088;18.268;2023-06-04T00:06:22;7.67;;;2.83;;
80675;SDS011;70041;46.088;18.268;2023-06-04T00:08:48;8.97;;;2.63;;
80675;SDS011;70041;46.088;18.268;2023-06-04T00:11:13;8.17;;;2.57;;
80675;SDS011;70041;46.088;18.268;2023-06-04T00:13:39;6.65;;;2.55;;
80675;SDS011;70041;46.088;18.268;2023-06-04T00:16:04;8.17;;;3.13;;
80675;SDS011;70041;46.088;18.268;2023-06-04T00:18:30;6.80;;;2.20;;
80675;SDS011;70041;46.088;18.268;2023-06-04T00:20:55;9.23;;;2.50;;
80675;SDS011;70041;46.088;18.268;2023-06-04T00:23:20;7.33;;;2.80;;
80675;SDS011;70041;46.088;18.268;2023-06-04T00:25:46;6.90;;;2.33;;
80675;SDS011;70041;46.088;18.268;2023-06-04T00:28:11;7.83;;;2.10;;
80675;SDS011;70041;46.088;18.268;2023-06-04T00:30:37;7.17;;;1.97;;
80675;SDS011;70041;46.088;18.268;2023-06-04T00:33:03;8.27;;;2.88;;
80675;SDS011;70041;46.088;18.268;2023-06-04T00:35:28;6.07;;;2.10;;
80675;SDS011;70041;46.088;18.268;2023-06-04T00:37:53;6.40;;;2.50;;
80675;SDS011;70041;46.088;18.268;2023-06-04T00:40:19;7.38;;;2.40;;
80675;SDS011;70041;46.088;18.268;2023-06-04T00:42:44;5.50;;;2.10;;
80675;SDS011;70041;46.088;18.268;2023-06-04T00:45:10;6.20;;;1.87;;
80675;SDS011;70041;46.088;18.268;2023-06-04T00:47:36;7.93;;;2.00;;
80675;SDS011;70041;46.088;18.268;2023-06-04T00:50:01;7.50;;;1.97;;
80675;SDS011;70041;46.088;18.268;2023-06-04T00:52:27;5.45;;;1.70;;
80675;SDS011;70041;46.088;18.268;2023-06-04T00:54:54;6.95;;;2.15;;
80675;SDS011;70041;46.088;18.268;2023-06-04T00:57:20;10.70;;;2.30;;
80675;SDS011;70041;46.088;18.268;2023-06-04T00:59:47;6.25;;;2.10;;
80675;SDS011;70041;46.088;18.268;2023-06-04T01:02:13;6.32;;;1.92;;
80675;SDS011;70041;46.088;18.268;2023-06-04T01:07:19;5.95;;;1.83;;
80675;SDS011;70041;46.088;18.268;2023-06-04T01:09:46;6.88;;;2.13;;
80675;SDS011;70041;46.088;18.268;2023-06-04T01:12:12;4.73;;;1.70;;
80675;SDS011;70041;46.088;18.268;2023-06-04T01:14:38;5.63;;;1.70;;
80675;SDS011;70041;46.088;18.268;2023-06-04T01:25:34;6.70;;;1.70;;
80675;SDS011;70041;46.088;18.268;2023-06-04T01:28:06;5.25;;;1.67;;
80675;SDS011;70041;46.088;18.268;2023-06-04T01:30:35;6.90;;;1.92;;
80675;SDS011;70041;46.088;18.268;2023-06-04T01:33:07;6.10;;;1.25;;
80675;SDS011;70041;46.088;18.268;2023-06-04T01:35:34;6.32;;;1.70;;
80675;SDS011;70041;46.088;18.268;2023-06-04T01:38:00;8.30;;;1.80;;
80675;SDS011;70041;46.088;18.268;2023-06-04T01:40:25;5.53;;;1.77;;
80675;SDS011;70041;46.088;18.268;2023-06-04T01:42:51;4.47;;;1.50;;
80675;SDS011;70041;46.088;18.268;2023-06-04T01:45:16;7.80;;;2.17;;
80675;SDS011;70041;46.088;18.268;2023-06-04T01:47:42;5.37;;;1.63;;
80675;SDS011;70041;46.088;18.268;2023-06-04T01:50:07;5.85;;;1.80;;
80675;SDS011;70041;46.088;18.268;2023-06-04T01:52:37;5.27;;;1.53;;
80675;SDS011;70041;46.088;18.268;2023-06-04T01:55:03;5.55;;;1.75;;
80675;SDS011;70041;46.088;18.268;2023-06-04T01:57:29;5.57;;;1.48;;
80675;SDS011;70041;46.088;18.268;2023-06-04T01:59:55;5.57;;;1.70;;
80675;SDS011;70041;46.088;18.268;2023-06-04T02:02:21;5.15;;;1.60;;
80675;SDS011;70041;46.088;18.268;2023-06-04T02:04:47;5.85;;;1.50;;
80675;SDS011;70041;46.088;18.268;2023-06-04T02:07:12;6.22;;;1.65;;
80675;SDS011;70041;46.088;18.268;2023-06-04T02:09:45;6.55;;;1.75;;
80675;SDS011;70041;46.088;18.268;2023-06-04T02:12:14;9.13;;;2.00;;
80675;SDS011;70041;46.088;18.268;2023-06-04T02:14:40;5.00;;;1.70;;
80675;SDS011;70041;46.088;18.268;2023-06-04T02:17:07;6.10;;;1.70;;
80675;SDS011;70041;46.088;18.268;2023-06-04T02:19:37;4.68;;;1.30;;
80675;SDS011;70041;46.088;18.268;2023-06-04T02:22:09;5.53;;;1.60;;
80675;SDS011;70041;46.088;18.268;2023-06-04T02:24:38;4.90;;;1.45;;
80675;SDS011;70041;46.088;18.268;2023-06-04T02:27:04;6.20;;;1.50;;
80675;SDS011;70041;46.088;18.268;2023-06-04T02:29:31;5.80;;;2.05;;
80675;SDS011;70041;46.088;18.268;2023-06-04T02:31:56;8.17;;;1.60;;
80675;SDS011;70041;46.088;18.268;2023-06-04T02:34:22;5.00;;;1.70;;
80675;SDS011;70041;46.088;18.268;2023-06-04T02:36:48;5.50;;;1.67;;
80675;SDS011;70041;46.088;18.268;2023-06-04T02:39:15;6.10;;;1.60;;
80675;SDS011;70041;46.088;18.268;2023-06-04T02:41:41;6.68;;;1.50;;
80675;SDS011;70041;46.088;18.268;2023-06-04T02:44:07;5.33;;;1.60;;
80675;SDS011;70041;46.088;18.268;2023-06-04T02:46:32;4.23;;;1.40;;
80675;SDS011;70041;46.088;18.268;2023-06-04T02:48:57;4.35;;;1.40;;
80675;SDS011;70041;46.088;18.268;2023-06-04T02:51:23;4.93;;;1.63;;
80675;SDS011;70041;46.088;18.268;2023-06-04T02:53:49;5.22;;;1.38;;
80675;SDS011;70041;46.088;18.268;2023-06-04T02:56:14;4.83;;;1.60;;
80675;SDS011;70041;46.088;18.268;2023-06-04T02:58:53;4.32;;;1.70;;
80675;SDS011;70041;46.088;18.268;2023-06-04T03:01:21;5.82;;;1.55;;
80675;SDS011;70041;46.088;18.268;2023-06-04T03:03:51;3.47;;;1.13;;
80675;SDS011;70041;46.088;18.268;2023-06-04T03:06:17;4.35;;;1.30;;
80675;SDS011;70041;46.088;18.268;2023-06-04T03:08:46;5.80;;;1.65;;
80675;SDS011;70041;46.088;18.268;2023-06-04T03:11:12;5.45;;;1.60;;
80675;SDS011;70041;46.088;18.268;2023-06-04T03:13:37;4.37;;;1.40;;
80675;SDS011;70041;46.088;18.268;2023-06-04T03:16:03;6.82;;;1.50;;
80675;SDS011;70041;46.088;18.268;2023-06-04T03:18:37;4.28;;;1.30;;
80675;SDS011;70041;46.088;18.268;2023-06-04T03:21:06;5.13;;;1.47;;
80675;SDS011;70041;46.088;18.268;2023-06-04T03:23:32;4.85;;;1.35;;
80675;SDS011;70041;46.088;18.268;2023-06-04T03:25:59;4.57;;;1.50;;
80675;SDS011;70041;46.088;18.268;2023-06-04T03:28:25;4.88;;;1.38;;
80675;SDS011;70041;46.088;18.268;2023-06-04T03:30:51;7.80;;;1.93;;
80675;SDS011;70041;46.088;18.268;2023-06-04T03:33:16;6.80;;;1.57;;
80675;SDS011;70041;46.088;18.268;2023-06-04T03:35:42;5.57;;;1.33;;
80675;SDS011;70041;46.088;18.268;2023-06-04T03:38:07;5.82;;;1.60;;
80675;SDS011;70041;46.088;18.268;2023-06-04T03:40:32;4.37;;;1.30;;
80675;SDS011;70041;46.088;18.268;2023-06-04T03:42:58;4.17;;;1.50;;
80675;SDS011;70041;46.088;18.268;2023-06-04T03:45:25;4.80;;;1.60;;
80675;SDS011;70041;46.088;18.268;2023-06-04T03:47:50;4.65;;;1.48;;
80675;SDS011;70041;46.088;18.268;2023-06-04T03:50:17;5.00;;;1.77;;
80675;SDS011;70041;46.088;18.268;2023-06-04T03:52:45;4.30;;;1.40;;
80675;SDS011;70041;46.088;18.268;2023-06-04T03:55:11;3.93;;;1.30;;
80675;SDS011;70041;46.088;18.268;2023-06-04T03:57:36;5.43;;;1.40;;
80675;SDS011;70041;46.088;18.268;2023-06-04T04:00:04;4.93;;;1.63;;
80675;SDS011;70041;46.088;18.268;2023-06-04T04:02:35;5.60;;;1.48;;
80675;SDS011;70041;46.088;18.268;2023-06-04T04:05:01;4.97;;;1.50;;
80675;SDS011;70041;46.088;18.268;2023-06-04T04:07:26;4.90;;;1.37;;
80675;SDS011;70041;46.088;18.268;2023-06-04T04:09:51;4.32;;;1.40;;
80675;SDS011;70041;46.088;18.268;2023-06-04T04:12:17;4.05;;;1.27;;
80675;SDS011;70041;46.088;18.268;2023-06-04T04:14:43;5.13;;;1.40;;
80675;SDS011;70041;46.088;18.268;2023-06-04T04:17:09;9.55;;;1.50;;
80675;SDS011;70041;46.088;18.268;2023-06-04T04:19:34;5.20;;;1.40;;
80675;SDS011;70041;46.088;18.268;2023-06-04T04:22:00;6.75;;;1.40;;
80675;SDS011;70041;46.088;18.268;2023-06-04T04:24:26;4.70;;;1.40;;
80675;SDS011;70041;46.088;18.268;2023-06-04T04:26:53;4.57;;;1.45;;
80675;SDS011;70041;46.088;18.268;2023-06-04T04:29:22;5.25;;;1.35;;
80675;SDS011;70041;46.088;18.268;2023-06-04T04:31:49;4.03;;;1.30;;
80675;SDS011;70041;46.088;18.268;2023-06-04T04:34:18;6.18;;;1.48;;
80675;SDS011;70041;46.088;18.268;2023-06-04T04:36:46;4.53;;;1.40;;
80675;SDS011;70041;46.088;18.268;2023-06-04T04:39:18;5.80;;;1.70;;
80675;SDS011;70041;46.088;18.268;2023-06-04T04:41:50;6.15;;;1.40;;
80675;SDS011;70041;46.088;18.268;2023-06-04T04:44:16;4.40;;;1.37;;
80675;SDS011;70041;46.088;18.268;2023-06-04T04:46:41;4.20;;;1.40;;
80675;SDS011;70041;46.088;18.268;2023-06-04T04:49:07;6.17;;;1.53;;
80675;SDS011;70041;46.088;18.268;2023-06-04T04:51:33;5.07;;;1.23;;
80675;SDS011;70041;46.088;18.268;2023-06-04T04:53:59;4.87;;;1.50;;
80675;SDS011;70041;46.088;18.268;2023-06-04T04:56:27;4.32;;;1.58;;
80675;SDS011;70041;46.088;18.268;2023-06-04T04:58:53;6.88;;;1.63;;
80675;SDS011;70041;46.088;18.268;2023-06-04T05:01:19;4.63;;;1.37;;
80675;SDS011;70041;46.088;18.268;2023-06-04T05:03:46;5.22;;;1.63;;
80675;SDS011;70041;46.088;18.268;2023-06-04T05:06:11;5.97;;;1.93;;
80675;SDS011;70041;46.088;18.268;2023-06-04T05:08:37;7.47;;;1.80;;
80675;SDS011;70041;46.088;18.268;2023-06-04T05:11:02;5.70;;;1.57;;
80675;SDS011;70041;46.088;18.268;2023-06-04T05:13:27;5.30;;;1.30;;
80675;SDS011;70041;46.088;18.268;2023-06-04T05:15:53;3.97;;;1.57;;
80675;SDS011;70041;46.088;18.268;2023-06-04T05:18:19;5.43;;;1.50;;
80675;SDS011;70041;46.088;18.268;2023-06-04T05:20:45;4.67;;;1.50;;
80675;SDS011;70041;46.088;18.268;2023-06-04T05:23:11;5.07;;;1.48;;
80675;SDS011;70041;46.088;18.268;2023-06-04T05:25:37;4.55;;;1.40;;
80675;SDS011;70041;46.088;18.268;2023-06-04T05:28:03;5.90;;;1.50;;
80675;SDS011;70041;46.088;18.268;2023-06-04T05:30:30;5.50;;;1.80;;
80675;SDS011;70041;46.088;18.268;2023-06-04T05:32:56;6.93;;;1.58;;
80675;SDS011;70041;46.088;18.268;2023-06-04T05:35:22;7.63;;;1.87;;
80675;SDS011;70041;46.088;18.268;2023-06-04T05:37:47;4.83;;;1.50;;
80675;SDS011;70041;46.088;18.268;2023-06-04T05:40:18;6.03;;;1.70;;
80675;SDS011;70041;46.088;18.268;2023-06-04T05:42:44;6.05;;;1.50;;
80675;SDS011;70041;46.088;18.268;2023-06-04T05:45:09;3.67;;;1.40;;
80675;SDS011;70041;46.088;18.268;2023-06-04T05:47:35;4.83;;;1.40;;
80675;SDS011;70041;46.088;18.268;2023-06-04T05:50:02;4.68;;;1.60;;
80675;SDS011;70041;46.088;18.268;2023-06-04T05:52:27;5.35;;;1.60;;
80675;SDS011;70041;46.088;18.268;2023-06-04T05:54:53;5.83;;;1.73;;
80675;SDS011;70041;46.088;18.268;2023-06-04T05:57:19;5.53;;;1.50;;
80675;SDS011;70041;46.088;18.268;2023-06-04T05:59:45;4.70;;;1.50;;
80675;SDS011;70041;46.088;18.268;2023-06-04T06:02:11;4.10;;;1.43;;
80675;SDS011;70041;46.088;18.268;2023-06-04T06:04:37;5.53;;;1.70;;
80675;SDS011;70041;46.088;18.268;2023-06-04T06:07:02;6.13;;;1.60;;
80675;SDS011;70041;46.088;18.268;2023-06-04T06:09:28;7.30;;;1.88;;
80675;SDS011;70041;46.088;18.268;2023-06-04T06:11:53;6.10;;;1.50;;
80675;SDS011;70041;46.088;18.268;2023-06-04T06:14:19;4.33;;;1.50;;
80675;SDS011;70041;46.088;18.268;2023-06-04T06:16:44;5.63;;;1.50;;
80675;SDS011;70041;46.088;18.268;2023-06-04T06:19:10;5.07;;;1.90;;
80675;SDS011;70041;46.088;18.268;2023-06-04T06:21:36;5.43;;;1.60;;
80675;SDS011;70041;46.088;18.268;2023-06-04T06:24:01;5.13;;;1.52;;
80675;SDS011;70041;46.088;18.268;2023-06-04T06:26:26;6.47;;;1.73;;
80675;SDS011;70041;46.088;18.268;2023-06-04T06:28:52;7.20;;;2.10;;
80675;SDS011;70041;46.088;18.268;2023-06-04T06:31:17;7.20;;;1.90;;
80675;SDS011;70041;46.088;18.268;2023-06-04T06:33:43;5.63;;;1.70;;
80675;SDS011;70041;46.088;18.268;2023-06-04T06:36:11;5.82;;;1.70;;
80675;SDS011;70041;46.088;18.268;2023-06-04T06:38:37;5.47;;;1.30;;
80675;SDS011;70041;46.088;18.268;2023-06-04T06:41:02;5.72;;;1.55;;
80675;SDS011;70041;46.088;18.268;2023-06-04T06:43:28;4.47;;;1.57;;
80675;SDS011;70041;46.088;18.268;2023-06-04T06:45:53;5.67;;;1.60;;
80675;SDS011;70041;46.088;18.268;2023-06-04T06:48:19;6.60;;;1.80;;
80675;SDS011;70041;46.088;18.268;2023-06-04T06:50:44;6.32;;;1.73;;
80675;SDS011;70041;46.088;18.268;2023-06-04T06:53:09;4.67;;;1.60;;
80675;SDS011;70041;46.088;18.268;2023-06-04T06:55:35;5.70;;;1.83;;
80675;SDS011;70041;46.088;18.268;2023-06-04T06:58:00;4.67;;;1.43;;
80675;SDS011;70041;46.088;18.268;2023-06-04T07:00:26;6.83;;;1.70;;
80675;SDS011;70041;46.088;18.268;2023-06-04T07:02:52;6.88;;;2.15;;
80675;SDS011;70041;46.088;18.268;2023-06-04T07:05:18;6.60;;;2.17;;
80675;SDS011;70041;46.088;18.268;2023-06-04T07:07:44;8.27;;;2.38;;
80675;SDS011;70041;46.088;18.268;2023-06-04T07:10:11;8.13;;;2.25;;
80675;SDS011;70041;46.088;18.268;2023-06-04T07:12:36;5.50;;;1.73;;
80675;SDS011;70041;46.088;18.268;2023-06-04T07:15:02;6.30;;;1.80;;
80675;SDS011;70041;46.088;18.268;2023-06-04T07:17:28;5.63;;;1.70;;
80675;SDS011;70041;46.088;18.268;2023-06-04T07:19:53;6.20;;;1.75;;
80675;SDS011;70041;46.088;18.268;2023-06-04T07:22:18;4.97;;;1.70;;
80675;SDS011;70041;46.088;18.268;2023-06-04T07:24:44;6.10;;;1.63;;
80675;SDS011;70041;46.088;18.268;2023-06-04T07:27:13;6.10;;;1.70;;
80675;SDS011;70041;46.088;18.268;2023-06-04T07:29:39;5.97;;;1.80;;
80675;SDS011;70041;46.088;18.268;2023-06-04T07:32:05;8.73;;;1.85;;
80675;SDS011;70041;46.088;18.268;2023-06-04T07:34:31;7.40;;;1.70;;
80675;SDS011;70041;46.088;18.268;2023-06-04T07:36:56;6.50;;;1.85;;
80675;SDS011;70041;46.088;18.268;2023-06-04T07:39:22;3.87;;;1.60;;
80675;SDS011;70041;46.088;18.268;2023-06-04T07:41:47;6.82;;;1.73;;
80675;SDS011;70041;46.088;18.268;2023-06-04T07:44:13;6.43;;;1.50;;
80675;SDS011;70041;46.088;18.268;2023-06-04T07:46:38;6.87;;;1.77;;
80675;SDS011;70041;46.088;18.268;2023-06-04T07:49:03;5.73;;;1.57;;
80675;SDS011;70041;46.088;18.268;2023-06-04T07:51:29;5.93;;;1.70;;
80675;SDS011;70041;46.088;18.268;2023-06-04T07:53:54;5.50;;;1.80;;
80675;SDS011;70041;46.088;18.268;2023-06-04T07:56:20;6.33;;;1.97;;
80675;SDS011;70041;46.088;18.268;2023-06-04T07:58:45;5.32;;;1.42;;
80675;SDS011;70041;46.088;18.268;2023-06-04T08:01:11;9.52;;;2.10;;
80675;SDS011;70041;46.088;18.268;2023-06-04T08:03:37;4.82;;;1.60;;
80675;SDS011;70041;46.088;18.268;2023-06-04T08:06:03;4.70;;;1.67;;
80675;SDS011;70041;46.088;18.268;2023-06-04T08:08:28;5.80;;;1.60;;
80675;SDS011;70041;46.088;18.268;2023-06-04T08:10:54;6.17;;;1.93;;
80675;SDS011;70041;46.088;18.268;2023-06-04T08:13:19;6.03;;;1.63;;
80675;SDS011;70041;46.088;18.268;2023-06-04T08:15:45;5.93;;;1.95;;
80675;SDS011;70041;46.088;18.268;2023-06-04T08:18:11;5.97;;;1.60;;
80675;SDS011;70041;46.088;18.268;2023-06-04T08:20:36;6.72;;;1.60;;
80675;SDS011;70041;46.088;18.268;2023-06-04T08:23:02;5.70;;;1.70;;
80675;SDS011;70041;46.088;18.268;2023-06-04T08:25:27;7.20;;;1.83;;
80675;SDS011;70041;46.088;18.268;2023-06-04T08:27:53;5.55;;;2.00;;
80675;SDS011;70041;46.088;18.268;2023-06-04T08:30:18;8.80;;;2.10;;
80675;SDS011;70041;46.088;18.268;2023-06-04T08:32:44;5.80;;;1.70;;
80675;SDS011;70041;46.088;18.268;2023-06-04T08:35:09;5.90;;;1.80;;
80675;SDS011;70041;46.088;18.268;2023-06-04T08:37:35;9.70;;;2.00;;
80675;SDS011;70041;46.088;18.268;2023-06-04T08:40:01;7.23;;;1.77;;
80675;SDS011;70041;46.088;18.268;2023-06-04T08:42:27;7.10;;;1.83;;
80675;SDS011;70041;46.088;18.268;2023-06-04T08:44:56;6.70;;;2.10;;
80675;SDS011;70041;46.088;18.268;2023-06-04T08:47:22;5.53;;;2.00;;
80675;SDS011;70041;46.088;18.268;2023-06-04T08:49:50;6.75;;;2.10;;
80675;SDS011;70041;46.088;18.268;2023-06-04T08:52:18;8.02;;;1.80;;
80675;SDS011;70041;46.088;18.268;2023-06-04T08:54:49;6.88;;;1.92;;
80675;SDS011;70041;46.088;18.268;2023-06-04T08:57:19;8.03;;;2.50;;
80675;SDS011;70041;46.088;18.268;2023-06-04T08:59:47;6.93;;;2.00;;
80675;SDS011;70041;46.088;18.268;2023-06-04T09:02:13;5.88;;;1.95;;
80675;SDS011;70041;46.088;18.268;2023-06-04T09:04:40;7.65;;;2.05;;
80675;SDS011;70041;46.088;18.268;2023-06-04T09:07:05;8.43;;;2.50;;
80675;SDS011;70041;46.088;18.268;2023-06-04T09:09:31;7.20;;;2.28;;
80675;SDS011;70041;46.088;18.268;2023-06-04T09:12:03;6.90;;;2.50;;
80675;SDS011;70041;46.088;18.268;2023-06-04T09:14:31;5.68;;;2.38;;
80675;SDS011;70041;46.088;18.268;2023-06-04T09:16:56;6.27;;;2.20;;
80675;SDS011;70041;46.088;18.268;2023-06-04T09:19:23;7.35;;;2.70;;
80675;SDS011;70041;46.088;18.268;2023-06-04T09:24:45;6.43;;;2.13;;
80675;SDS011;70041;46.088;18.268;2023-06-04T09:27:13;7.53;;;2.53;;
80675;SDS011;70041;46.088;18.268;2023-06-04T09:29:48;7.20;;;2.28;;
80675;SDS011;70041;46.088;18.268;2023-06-04T09:32:20;7.63;;;2.60;;
80675;SDS011;70041;46.088;18.268;2023-06-04T09:34:49;6.30;;;2.47;;
80675;SDS011;70041;46.088;18.268;2023-06-04T09:37:15;7.95;;;2.72;;
80675;SDS011;70041;46.088;18.268;2023-06-04T09:39:44;7.80;;;2.40;;
80675;SDS011;70041;46.088;18.268;2023-06-04T09:42:18;7.95;;;2.50;;
80675;SDS011;70041;46.088;18.268;2023-06-04T09:44:43;6.90;;;2.50;;
80675;SDS011;70041;46.088;18.268;2023-06-04T09:47:12;9.88;;;2.60;;
80675;SDS011;70041;46.088;18.268;2023-06-04T09:49:47;8.13;;;2.60;;
80675;SDS011;70041;46.088;18.268;2023-06-04T09:52:16;6.47;;;2.65;;
80675;SDS011;70041;46.088;18.268;2023-06-04T09:54:42;6.03;;;2.30;;
80675;SDS011;70041;46.088;18.268;2023-06-04T09:57:14;5.33;;;2.10;;
80675;SDS011;70041;46.088;18.268;2023-06-04T09:59:52;7.28;;;2.50;;
80675;SDS011;70041;46.088;18.268;2023-06-04T10:02:19;6.70;;;2.13;;
80675;SDS011;70041;46.088;18.268;2023-06-04T10:04:53;7.30;;;2.55;;
80675;SDS011;70041;46.088;18.268;2023-06-04T10:07:21;6.20;;;2.53;;
80675;SDS011;70041;46.088;18.268;2023-06-04T10:09:48;6.03;;;2.63;;
80675;SDS011;70041;46.088;18.268;2023-06-04T10:12:16;8.65;;;2.50;;
80675;SDS011;70041;46.088;18.268;2023-06-04T10:14:56;7.38;;;2.45;;
80675;SDS011;70041;46.088;18.268;2023-06-04T10:17:26;8.13;;;2.65;;
80675;SDS011;70041;46.088;18.268;2023-06-04T10:19:55;7.07;;;2.70;;
80675;SDS011;70041;46.088;18.268;2023-06-04T10:22:23;6.63;;;2.60;;
80675;SDS011;70041;46.088;18.268;2023-06-04T10:24:49;6.70;;;2.67;;
80675;SDS011;70041;46.088;18.268;2023-06-04T10:27:14;8.05;;;3.08;;
80675;SDS011;70041;46.088;18.268;2023-06-04T10:29:42;7.85;;;2.92;;
80675;SDS011;70041;46.088;18.268;2023-06-04T10:32:08;7.03;;;2.67;;
80675;SDS011;70041;46.088;18.268;2023-06-04T10:34:34;5.95;;;2.60;;
80675;SDS011;70041;46.088;18.268;2023-06-04T10:37:00;7.20;;;2.70;;
80675;SDS011;70041;46.088;18.268;2023-06-04T10:39:31;8.45;;;3.13;;
80675;SDS011;70041;46.088;18.268;2023-06-04T10:42:06;7.78;;;3.10;;
80675;SDS011;70041;46.088;18.268;2023-06-04T10:44:32;7.07;;;2.92;;
80675;SDS011;70041;46.088;18.268;2023-06-04T10:47:18;5.97;;;2.80;;
80675;SDS011;70041;46.088;18.268;2023-06-04T10:49:55;7.17;;;2.70;;
80675;SDS011;70041;46.088;18.268;2023-06-04T10:52:32;6.35;;;2.78;;
80675;SDS011;70041;46.088;18.268;2023-06-04T10:55:04;6.87;;;3.00;;
80675;SDS011;70041;46.088;18.268;2023-06-04T10:57:31;7.53;;;3.03;;
80675;SDS011;70041;46.088;18.268;2023-06-04T10:59:58;6.15;;;2.42;;
80675;SDS011;70041;46.088;18.268;2023-06-04T11:02:25;7.00;;;2.67;;
80675;SDS011;70041;46.088;18.268;2023-06-04T11:05:04;5.85;;;2.75;;
80675;SDS011;70041;46.088;18.268;2023-06-04T11:07:44;9.43;;;2.72;;
80675;SDS011;70041;46.088;18.268;2023-06-04T11:10:11;9.57;;;2.60;;
80675;SDS011;70041;46.088;18.268;2023-06-04T11:12:47;7.63;;;3.33;;
80675;SDS011;70041;46.088;18.268;2023-06-04T11:15:15;8.05;;;2.75;;
80675;SDS011;70041;46.088;18.268;2023-06-04T11:20:21;6.55;;;2.80;;
80675;SDS011;70041;46.088;18.268;2023-06-04T11:22:57;8.63;;;3.10;;
80675;SDS011;70041;46.088;18.268;2023-06-04T11:25:25;8.00;;;3.40;;
80675;SDS011;70041;46.088;18.268;2023-06-04T11:27:54;7.13;;;2.92;;
80675;SDS011;70041;46.088;18.268;2023-06-04T11:30:23;7.10;;;3.10;;
80675;SDS011;70041;46.088;18.268;2023-06-04T11:32:49;7.57;;;3.22;;
80675;SDS011;70041;46.088;18.268;2023-06-04T11:35:15;6.90;;;3.20;;
80675;SDS011;70041;46.088;18.268;2023-06-04T11:37:41;8.02;;;3.47;;
80675;SDS011;70041;46.088;18.268;2023-06-04T11:40:17;6.47;;;2.65;;
80675;SDS011;70041;46.088;18.268;2023-06-04T11:42:44;6.72;;;3.45;;
80675;SDS011;70041;46.088;18.268;2023-06-04T11:45:14;7.50;;;3.20;;
80675;SDS011;70041;46.088;18.268;2023-06-04T11:47:53;6.65;;;3.38;;
80675;SDS011;70041;46.088;18.268;2023-06-04T11:50:20;8.75;;;3.00;;
80675;SDS011;70041;46.088;18.268;2023-06-04T11:52:47;9.13;;;3.47;;
80675;SDS011;70041;46.088;18.268;2023-06-04T11:55:13;8.13;;;2.97;;
80675;SDS011;70041;46.088;18.268;2023-06-04T11:57:42;7.40;;;2.90;;
80675;SDS011;70041;46.088;18.268;2023-06-04T12:00:08;6.80;;;2.85;;
80675;SDS011;70041;46.088;18.268;2023-06-04T12:02:35;8.43;;;3.15;;
80675;SDS011;70041;46.088;18.268;2023-06-04T12:05:14;8.07;;;3.40;;
80675;SDS011;70041;46.088;18.268;2023-06-04T12:07:43;7.72;;;3.10;;
80675;SDS011;70041;46.088;18.268;2023-06-04T12:10:09;9.93;;;3.20;;
80675;SDS011;70041;46.088;18.268;2023-06-04T12:12:39;8.90;;;3.20;;
80675;SDS011;70041;46.088;18.268;2023-06-04T12:15:07;7.35;;;3.03;;
80675;SDS011;70041;46.088;18.268;2023-06-04T12:17:34;6.82;;;3.00;;
80675;SDS011;70041;46.088;18.268;2023-06-04T12:20:01;8.37;;;3.20;;
80675;SDS011;70041;46.088;18.268;2023-06-04T12:22:26;7.40;;;3.20;;
80675;SDS011;70041;46.088;18.268;2023-06-04T12:24:53;9.23;;;3.43;;
80675;SDS011;70041;46.088;18.268;2023-06-04T12:27:21;8.90;;;3.28;;
80675;SDS011;70041;46.088;18.268;2023-06-04T12:30:02;9.43;;;3.42;;
80675;SDS011;70041;46.088;18.268;2023-06-04T12:32:30;6.95;;;3.20;;
80675;SDS011;70041;46.088;18.268;2023-06-04T12:34:55;6.87;;;3.70;;
80675;SDS011;70041;46.088;18.268;2023-06-04T12:37:21;8.18;;;3.47;;
80675;SDS011;70041;46.088;18.268;2023-06-04T12:39:50;7.72;;;3.65;;
80675;SDS011;70041;46.088;18.268;2023-06-04T12:42:15;6.93;;;3.47;;
80675;SDS011;70041;46.088;18.268;2023-06-04T12:44:44;7.18;;;3.35;;
80675;SDS011;70041;46.088;18.268;2023-06-04T12:47:09;8.33;;;3.60;;
80675;SDS011;70041;46.088;18.268;2023-06-04T12:49:35;8.25;;;3.03;;
80675;SDS011;70041;46.088;18.268;2023-06-04T12:52:01;9.77;;;3.50;;
80675;SDS011;70041;46.088;18.268;2023-06-04T12:54:27;6.43;;;3.25;;
80675;SDS011;70041;46.088;18.268;2023-06-04T12:56:53;7.93;;;4.13;;
80675;SDS011;70041;46.088;18.268;2023-06-04T12:59:19;7.45;;;3.47;;
80675;SDS011;70041;46.088;18.268;2023-06-04T13:01:44;7.87;;;3.97;;
80675;SDS011;70041;46.088;18.268;2023-06-04T13:04:10;6.93;;;3.30;;
80675;SDS011;70041;46.088;18.268;2023-06-04T13:06:35;7.33;;;3.70;;
80675;SDS011;70041;46.088;18.268;2023-06-04T13:09:02;8.00;;;4.20;;
80675;SDS011;70041;46.088;18.268;2023-06-04T13:11:33;6.63;;;3.72;;
80675;SDS011;70041;46.088;18.268;2023-06-04T13:14:02;6.20;;;3.43;;
80675;SDS011;70041;46.088;18.268;2023-06-04T13:16:28;8.65;;;4.22;;
80675;SDS011;70041;46.088;18.268;2023-06-04T13:18:53;7.70;;;3.50;;
80675;SDS011;70041;46.088;18.268;2023-06-04T13:21:18;8.43;;;3.90;;
80675;SDS011;70041;46.088;18.268;2023-06-04T13:23:44;7.47;;;3.47;;
80675;SDS011;70041;46.088;18.268;2023-06-04T13:26:09;7.43;;;3.53;;
80675;SDS011;70041;46.088;18.268;2023-06-04T13:28:35;6.70;;;3.70;;
80675;SDS011;70041;46.088;18.268;2023-06-04T13:31:00;6.60;;;3.53;;
80675;SDS011;70041;46.088;18.268;2023-06-04T13:33:26;10.73;;;3.70;;
80675;SDS011;70041;46.088;18.268;2023-06-04T13:35:52;7.75;;;3.50;;
80675;SDS011;70041;46.088;18.268;2023-06-04T13:38:18;8.10;;;3.70;;
80675;SDS011;70041;46.088;18.268;2023-06-04T13:40:43;7.50;;;3.97;;
80675;SDS011;70041;46.088;18.268;2023-06-04T13:43:09;8.88;;;4.00;;
80675;SDS011;70041;46.088;18.268;2023-06-04T13:45:35;8.83;;;3.77;;
80675;SDS011;70041;46.088;18.268;2023-06-04T13:48:00;6.97;;;3.57;;
80675;SDS011;70041;46.088;18.268;2023-06-04T13:50:30;8.40;;;3.97;;
80675;SDS011;70041;46.088;18.268;2023-06-04T13:52:56;8.20;;;3.75;;
80675;SDS011;70041;46.088;18.268;2023-06-04T13:55:22;9.23;;;3.90;;
80675;SDS011;70041;46.088;18.268;2023-06-04T13:57:47;7.82;;;3.72;;
80675;SDS011;70041;46.088;18.268;2023-06-04T14:00:13;9.07;;;4.00;;
80675;SDS011;70041;46.088;18.268;2023-06-04T14:02:39;10.57;;;3.65;;
80675;SDS011;70041;46.088;18.268;2023-06-04T14:05:04;8.07;;;3.70;;
80675;SDS011;70041;46.088;18.268;2023-06-04T14:07:30;8.20;;;3.70;;
80675;SDS011;70041;46.088;18.268;2023-06-04T14:09:56;7.80;;;3.73;;
80675;SDS011;70041;46.088;18.268;2023-06-04T14:12:22;7.55;;;3.50;;
80675;SDS011;70041;46.088;18.268;2023-06-04T14:14:48;10.88;;;4.15;;
80675;SDS011;70041;46.088;18.268;2023-06-04T14:17:13;7.67;;;3.70;;
80675;SDS011;70041;46.088;18.268;2023-06-04T14:19:39;7.60;;;3.70;;
80675;SDS011;70041;46.088;18.268;2023-06-04T14:22:05;7.00;;;4.05;;
80675;SDS011;70041;46.088;18.268;2023-06-04T14:24:31;7.30;;;4.03;;
80675;SDS011;70041;46.088;18.268;2023-06-04T14:26:56;9.20;;;4.20;;
80675;SDS011;70041;46.088;18.268;2023-06-04T14:29:22;8.47;;;3.70;;
80675;SDS011;70041;46.088;18.268;2023-06-04T14:31:47;8.70;;;3.90;;
80675;SDS011;70041;46.088;18.268;2023-06-04T14:34:12;8.27;;;4.00;;
80675;SDS011;70041;46.088;18.268;2023-06-04T14:36:38;8.73;;;4.15;;
80675;SDS011;70041;46.088;18.268;2023-06-04T14:39:03;9.33;;;3.90;;
80675;SDS011;70041;46.088;18.268;2023-06-04T14:41:29;7.10;;;4.03;;
80675;SDS011;70041;46.088;18.268;2023-06-04T14:43:55;6.55;;;3.50;;
80675;SDS011;70041;46.088;18.268;2023-06-04T14:46:20;9.43;;;4.27;;
80675;SDS011;70041;46.088;18.268;2023-06-04T14:48:46;6.85;;;3.53;;